Time;durP1;ratioP1;P1;durP2;ratioP2;P2;SDS_P1;SDS_P2;PMS_P1;PMS_P2;Temp;Humidity;BMP_temperature;BMP_pressure;BME280_temperature;BME280_humidity;BME280_pressure;Samples;Min_cycle;Max_cycle;Signal;HPM_P1;HPM_P2
2022/07/25 00:01:40;;;;;;;2.80;1.10;;;21.90;99.90;;;;;;6256761;22;20247;-89
2022/07/25 00:04:07;;;;;;;2.65;1.10;;;21.90;99.90;;;;;;6255468;22;20409;-93
2022/07/25 00:06:37;;;;;;;2.45;1.20;;;21.90;99.90;;;;;;6255163;22;20098;-92
2022/07/25 00:09:05;;;;;;;2.20;1.00;;;21.90;99.90;;;;;;6256986;22;20020;-90
2022/07/25 00:11:31;;;;;;;2.95;1.20;;;21.90;99.90;;;;;;6256263;22;20022;-91
2022/07/25 00:13:57;;;;;;;2.47;0.90;;;21.90;99.90;;;;;;6256334;22;20053;-92
2022/07/25 00:16:25;;;;;;;3.95;1.30;;;21.90;99.90;;;;;;6256320;22;20015;-92
2022/07/25 00:18:51;;;;;;;3.22;1.05;;;21.90;99.90;;;;;;6257446;22;20389;-91
2022/07/25 00:21:16;;;;;;;2.22;1.10;;;21.90;99.90;;;;;;6281068;22;20034;-91
2022/07/25 00:23:42;;;;;;;2.47;1.20;;;21.90;99.90;;;;;;6278559;22;20056;-92
2022/07/25 00:26:08;;;;;;;2.47;1.20;;;21.90;99.90;;;;;;6288871;22;20019;-91
2022/07/25 00:28:33;;;;;;;3.90;1.23;;;21.90;99.90;;;;;;6256336;22;20448;-93
2022/07/25 00:30:59;;;;;;;3.10;1.30;;;21.90;99.90;;;;;;6256407;22;20022;-93
2022/07/25 00:33:25;;;;;;;;;;;21.90;99.90;;;;;;6256624;22;20090;-93
2022/07/25 00:38:26;;;;;;;2.88;1.23;;;21.90;99.90;;;;;;6321430;22;20023;-92
2022/07/25 01:06:42;;;;;;;3.63;1.75;;;21.60;99.90;;;;;;6297676;22;20023;-92
2022/07/25 01:11:49;;;;;;;3.70;1.50;;;21.50;99.90;;;;;;6287336;22;19938;-93
2022/07/25 03:09:55;;;;;;;;;;;;;;;;;;;;;
2022/07/25 03:17:32;;;;;;;5.57;2.47;;;21.00;99.90;;;;;;6307336;22;20023;-92
2022/07/25 03:27:39;;;;;;;4.63;2.40;;;20.70;99.90;;;;;;6307804;22;20019;-91
2022/07/25 03:30:05;;;;;;;4.32;2.58;;;20.70;99.90;;;;;;6255667;22;20470;-91
2022/07/25 03:33:22;;;;;;;5.43;2.90;;;20.70;99.90;;;;;;6256848;22;20019;-92
2022/07/25 03:35:47;;;;;;;5.15;2.33;;;20.70;99.90;;;;;;6281675;22;20023;-91
2022/07/25 03:38:13;;;;;;;5.88;2.58;;;20.70;99.90;;;;;;6257060;22;20011;-91
2022/07/25 03:40:39;;;;;;;5.55;2.47;;;20.70;99.90;;;;;;6257341;22;20126;-91
2022/07/25 03:51:27;;;;;;;4.80;2.40;;;20.60;99.90;;;;;;6326482;22;20030;-91
2022/07/25 03:54:02;;;;;;;6.90;2.75;;;20.60;99.90;;;;;;6288075;22;20014;-92
2022/07/25 03:56:32;;;;;;;5.78;3.10;;;20.60;99.90;;;;;;6287690;22;20046;-91
2022/07/25 03:59:56;;;;;;;6.55;3.20;;;20.50;99.90;;;;;;6287922;22;20014;-90
2022/07/25 04:02:36;;;;;;;6.20;3.20;;;20.50;99.90;;;;;;6180635;23;20034;-91
2022/07/25 04:05:02;;;;;;;5.70;2.85;;;20.50;99.90;;;;;;6195087;23;20023;-92
2022/07/25 04:07:28;;;;;;;5.15;2.60;;;20.50;99.90;;;;;;6247026;22;20021;-93
2022/07/25 04:17:59;;;;;;;4.55;2.33;;;20.50;99.90;;;;;;6278116;22;20081;-92
2022/07/25 04:20:25;;;;;;;5.18;2.80;;;20.50;99.90;;;;;;6226376;22;20024;-91
2022/07/25 04:22:51;;;;;;;6.78;3.20;;;20.50;99.90;;;;;;6226227;22;20039;-90
2022/07/25 04:25:16;;;;;;;6.78;3.80;;;20.50;99.90;;;;;;6226169;22;20455;-91
2022/07/25 04:27:43;;;;;;;5.72;3.08;;;20.40;99.90;;;;;;6226342;22;20010;-91
2022/07/25 04:30:09;;;;;;;;;;;20.40;99.90;;;;;;6226752;22;20062;-91
2022/07/25 04:32:35;;;;;;;5.65;3.30;;;20.40;99.90;;;;;;6226159;22;19912;-90
2022/07/25 04:35:00;;;;;;;5.22;2.97;;;20.40;99.90;;;;;;6225859;22;20031;-91
2022/07/25 04:37:26;;;;;;;6.28;3.17;;;20.50;99.90;;;;;;6226315;22;20336;-93
2022/07/25 04:44:39;;;;;;;;;;;;;;;;;;;;;
2022/07/25 04:47:05;;;;;;;5.55;3.45;;;20.50;99.90;;;;;;6102501;22;20021;-95
2022/07/25 04:49:31;;;;;;;5.90;3.35;;;20.50;99.90;;;;;;6226264;22;20012;-92
2022/07/25 04:54:55;;;;;;;6.43;3.72;;;20.60;99.90;;;;;;6304154;22;20084;-91
2022/07/25 05:02:50;;;;;;;;;;;;;;;;;;;;;
2022/07/25 05:13:55;;;;;;;6.90;3.78;;;20.90;99.90;;;;;;6340148;22;20030;-92
2022/07/25 05:16:20;;;;;;;7.47;3.90;;;20.90;99.90;;;;;;6287106;22;20023;-93
2022/07/25 05:26:32;;;;;;;6.15;3.80;;;21.00;99.90;;;;;;6348757;22;20331;-93
2022/07/25 05:28:58;;;;;;;7.45;4.05;;;21.10;99.90;;;;;;6286731;22;20098;-92
2022/07/25 05:31:49;;;;;;;7.20;4.47;;;21.20;99.90;;;;;;6286901;22;20010;-93
2022/07/25 05:34:14;;;;;;;7.28;4.05;;;21.30;99.90;;;;;;6286860;22;20015;-92
2022/07/25 05:36:40;;;;;;;7.78;4.28;;;21.30;99.90;;;;;;6287048;22;20057;-92
2022/07/25 05:39:06;;;;;;;6.75;4.00;;;21.30;99.90;;;;;;6286845;22;20007;-92
2022/07/25 05:54:29;;;;;;;7.40;4.22;;;21.50;99.90;;;;;;6339242;22;20022;-91
2022/07/25 05:59:43;;;;;;;9.55;5.18;;;21.60;99.90;;;;;;6306701;22;20007;-91
2022/07/25 06:02:09;;;;;;;8.15;4.55;;;21.60;99.90;;;;;;6312022;22;20118;-92
2022/07/25 06:04:35;;;;;;;7.18;4.32;;;21.60;99.90;;;;;;6298289;22;20067;-93
2022/07/25 06:07:19;;;;;;;9.05;4.90;;;21.60;99.90;;;;;;6287473;22;20036;-93
2022/07/25 06:09:44;;;;;;;7.47;4.28;;;21.70;99.90;;;;;;6286273;22;20019;-92
2022/07/25 06:12:10;;;;;;;7.82;4.63;;;21.70;99.90;;;;;;6286346;22;20007;-92
2022/07/25 06:14:36;;;;;;;8.35;5.07;;;21.80;99.90;;;;;;6286170;22;20064;-93
2022/07/25 06:17:01;;;;;;;7.30;4.57;;;21.80;99.90;;;;;;6286365;22;20014;-93
2022/07/25 06:19:27;;;;;;;7.72;5.22;;;21.90;99.90;;;;;;6286106;22;20022;-92
2022/07/25 06:21:56;;;;;;;7.05;4.18;;;21.90;99.90;;;;;;6286024;22;20022;-93
2022/07/25 06:24:21;;;;;;;9.50;4.72;;;22.00;99.90;;;;;;6285818;22;20019;-90
2022/07/25 06:26:47;;;;;;;8.07;4.75;;;22.10;99.90;;;;;;6286263;22;20015;-91
2022/07/25 06:29:13;;;;;;;7.72;4.80;;;22.10;99.90;;;;;;6285945;22;20030;-90
2022/07/25 06:31:38;;;;;;;7.55;4.45;;;22.20;99.90;;;;;;6286138;22;20015;-91
2022/07/25 06:34:04;;;;;;;8.07;5.35;;;22.10;99.90;;;;;;6285768;22;20084;-89
2022/07/25 06:36:30;;;;;;;9.40;5.03;;;22.20;99.90;;;;;;6286403;22;20064;-91
2022/07/25 06:38:56;;;;;;;7.75;4.45;;;22.20;99.90;;;;;;6286194;22;20011;-93
2022/07/25 06:41:21;;;;;;;11.05;5.30;;;22.30;99.90;;;;;;6286404;22;20309;-92
2022/07/25 06:43:47;;;;;;;8.25;4.43;;;22.30;99.90;;;;;;6297407;22;20083;-92
2022/07/25 06:46:13;;;;;;;8.60;4.78;;;22.50;99.90;;;;;;6285861;22;20093;-93
2022/07/25 06:48:38;;;;;;;10.10;5.40;;;22.80;99.90;;;;;;6285988;22;20015;-93
2022/07/25 06:51:05;;;;;;;9.50;4.53;;;23.20;99.90;;;;;;6286144;22;20059;-92
2022/07/25 06:53:31;;;;;;;8.70;4.97;;;23.90;99.90;;;;;;6286040;22;20046;-90
2022/07/25 06:55:56;;;;;;;8.18;4.65;;;24.30;99.90;;;;;;6285712;22;20076;-93
2022/07/25 06:58:22;;;;;;;8.63;4.68;;;24.90;99.90;;;;;;6286358;22;20021;-92
2022/07/25 07:00:47;;;;;;;;;;;25.30;99.90;;;;;;6286373;22;20021;-92
2022/07/25 07:03:13;;;;;;;8.15;4.43;;;25.50;99.90;;;;;;6285935;22;19968;-92
2022/07/25 07:06:01;;;;;;;6.25;3.83;;;25.50;99.90;;;;;;6287221;22;20018;-94
2022/07/25 07:08:26;;;;;;;7.18;4.28;;;25.20;99.90;;;;;;6313829;22;20015;-91
2022/07/25 07:10:52;;;;;;;;;;;24.90;99.90;;;;;;6288797;22;20079;-93
2022/07/25 07:13:18;;;;;;;7.40;4.85;;;24.80;99.90;;;;;;6287939;22;19914;-93
2022/07/25 07:15:48;;;;;;;7.22;4.65;;;24.50;99.90;;;;;;6289514;22;20015;-93
2022/07/25 07:18:13;;;;;;;7.28;3.85;;;24.40;99.90;;;;;;6313723;22;20072;-95
2022/07/25 07:27:26;;;;;;;7.78;3.90;;;23.80;99.90;;;;;;6340848;22;20466;-93
2022/07/25 07:29:51;;;;;;;;;;;23.70;99.90;;;;;;6288536;22;20019;-94
2022/07/25 07:32:17;;;;;;;8.02;4.45;;;23.70;99.90;;;;;;6287671;22;19915;-92
2022/07/25 07:34:43;;;;;;;8.60;4.50;;;23.70;99.90;;;;;;6288437;22;20018;-90
2022/07/25 07:37:27;;;;;;;7.72;4.10;;;23.70;99.90;;;;;;6287942;22;20032;-93
2022/07/25 07:39:52;;;;;;;7.95;4.05;;;23.60;99.90;;;;;;6287601;22;20071;-96
2022/07/25 07:42:18;;;;;;;;;;;23.60;99.90;;;;;;6288922;22;20075;-94
2022/07/25 07:44:44;;;;;;;7.28;4.15;;;23.70;99.90;;;;;;6288434;22;19914;-95
2022/07/25 07:47:10;;;;;;;;;;;23.70;99.90;;;;;;6289131;22;20010;-96
2022/07/25 07:49:35;;;;;;;5.70;3.45;;;23.70;99.90;;;;;;6287802;22;19914;-95
2022/07/25 07:52:23;;;;;;;6.70;3.30;;;23.70;99.90;;;;;;6288457;22;20037;-94
2022/07/25 07:57:33;;;;;;;6.47;3.50;;;23.70;99.90;;;;;;6313481;22;20019;-94
2022/07/25 07:59:58;;;;;;;;;;;23.70;99.90;;;;;;6288218;22;20015;-94
2022/07/25 08:02:27;;;;;;;5.97;3.28;;;23.70;99.90;;;;;;6288850;22;19915;-94
2022/07/25 08:04:52;;;;;;;6.57;3.20;;;23.70;99.90;;;;;;6288625;22;20019;-96
2022/07/25 08:07:18;;;;;;;;;;;23.70;99.90;;;;;;6290923;22;20026;-92
2022/07/25 08:09:46;;;;;;;6.55;3.63;;;23.60;99.90;;;;;;6295038;22;19938;-92
2022/07/25 08:12:12;;;;;;;6.50;2.97;;;23.60;99.90;;;;;;6293299;22;20015;-92
2022/07/25 08:14:37;;;;;;;;;;;23.60;99.90;;;;;;6289084;22;20063;-91
2022/07/25 08:41:40;;;;;;;4.53;2.10;;;23.70;99.90;;;;;;6339971;22;20313;-91
2022/07/25 08:45:00;;;;;;;5.40;2.42;;;23.70;99.90;;;;;;6287495;22;20019;-90
2022/07/25 08:47:27;;;;;;;5.25;2.58;;;23.70;99.90;;;;;;6287145;22;20019;-90
2022/07/25 08:49:56;;;;;;;4.55;2.00;;;23.60;99.90;;;;;;6287357;22;20317;-91
2022/07/25 10:21:11;;;;;;;1.70;0.70;;;23.80;99.90;;;;;;6325789;22;20019;-91
2022/07/25 10:23:37;;;;;;;1.90;0.65;;;23.80;99.90;;;;;;6273813;22;20019;-91
2022/07/25 10:26:07;;;;;;;;;;;23.80;99.90;;;;;;6262493;22;20061;-93
2022/07/25 10:28:40;;;;;;;1.80;0.80;;;23.70;99.90;;;;;;6281082;22;19914;-90
2022/07/25 10:31:30;;;;;;;1.55;0.60;;;23.60;99.90;;;;;;6255433;22;20026;-91
2022/07/25 10:34:00;;;;;;;1.60;0.80;;;23.50;99.90;;;;;;6255612;22;20022;-91
2022/07/25 10:36:40;;;;;;;2.50;0.80;;;23.30;99.90;;;;;;6255459;22;20019;-91
2022/07/25 10:39:08;;;;;;;1.95;0.73;;;23.30;99.90;;;;;;6255892;22;20030;-93
2022/07/25 10:42:03;;;;;;;1.80;0.77;;;23.20;99.90;;;;;;6257722;22;20015;-92
2022/07/25 10:44:44;;;;;;;3.55;1.00;;;23.20;99.90;;;;;;6257176;22;20015;-90
2022/07/25 10:47:14;;;;;;;2.75;1.10;;;23.10;99.90;;;;;;6256964;22;20137;-90
2022/07/25 10:49:44;;;;;;;2.40;1.13;;;23.00;99.90;;;;;;6256994;22;20453;-91
2022/07/25 11:04:04;;;;;;;2.85;1.20;;;22.70;99.90;;;;;;6315620;22;20023;-88
2022/07/25 11:06:37;;;;;;;2.97;1.20;;;22.60;99.90;;;;;;6283330;22;20027;-87
2022/07/25 11:09:12;;;;;;;1.83;0.90;;;22.70;99.90;;;;;;6257000;22;20015;-91
2022/07/25 11:11:46;;;;;;;2.22;0.90;;;22.70;99.90;;;;;;6256997;22;20016;-90
2022/07/25 11:14:22;;;;;;;2.38;1.00;;;22.80;99.90;;;;;;6256369;22;20367;-88
2022/07/25 11:17:08;;;;;;;2.58;0.93;;;22.90;99.90;;;;;;6257878;22;20015;-92
2022/07/25 11:19:34;;;;;;;1.60;0.77;;;23.00;99.90;;;;;;6257027;22;20018;-91
2022/07/25 11:22:24;;;;;;;3.33;1.10;;;23.00;99.90;;;;;;6257494;22;20352;-88
2022/07/25 11:24:50;;;;;;;3.70;0.98;;;23.10;99.90;;;;;;6256810;22;20019;-93
2022/07/25 11:27:48;;;;;;;2.72;1.00;;;23.10;99.90;;;;;;6282705;22;20088;-92
2022/07/25 11:30:38;;;;;;;2.03;0.65;;;23.30;99.90;;;;;;6233517;22;20023;-89
2022/07/25 11:33:04;;;;;;;3.03;1.00;;;23.40;99.90;;;;;;6256145;22;20110;-88
2022/07/25 11:35:31;;;;;;;;;;;23.40;99.90;;;;;;6257161;22;20054;-90
2022/07/25 11:38:47;;;;;;;2.42;1.20;;;23.40;99.90;;;;;;6282965;22;19948;-89
2022/07/25 11:41:59;;;;;;;3.45;1.20;;;23.50;99.90;;;;;;6287017;22;20069;-87
2022/07/25 11:44:49;;;;;;;2.22;0.90;;;23.50;99.90;;;;;;6259083;22;20015;-86
2022/07/25 11:47:31;;;;;;;2.90;0.93;;;23.50;99.90;;;;;;6255913;22;20021;-90
2022/07/25 11:50:00;;;;;;;3.25;1.02;;;23.60;99.90;;;;;;6256272;22;20015;-87
2022/07/25 11:52:46;;;;;;;3.15;0.98;;;23.60;99.90;;;;;;6255857;22;20449;-89
2022/07/25 11:55:16;;;;;;;2.67;0.80;;;23.80;99.90;;;;;;6254764;22;20019;-90
2022/07/25 11:57:44;;;;;;;3.15;0.75;;;23.90;99.90;;;;;;6256465;22;20085;-91
2022/07/25 12:00:17;;;;;;;2.80;0.85;;;23.90;99.90;;;;;;6256359;22;20019;-91
2022/07/25 12:02:48;;;;;;;4.25;1.23;;;23.80;99.90;;;;;;6257260;22;20337;-94
2022/07/25 12:10:54;;;;;;;4.22;1.88;;;23.40;99.90;;;;;;6307652;22;20019;-90
2022/07/25 12:13:25;;;;;;;3.03;1.00;;;23.30;99.90;;;;;;6256353;22;20402;-89
2022/07/25 12:15:51;;;;;;;4.05;1.30;;;23.30;99.90;;;;;;6281455;22;20051;-90
2022/07/25 12:18:19;;;;;;;;;;;23.30;99.90;;;;;;6255664;22;20068;-93
2022/07/25 12:20:45;;;;;;;3.08;0.98;;;23.30;99.90;;;;;;6255566;22;19947;-90
2022/07/25 12:23:11;;;;;;;;;;;23.30;99.90;;;;;;6256578;22;20015;-90
2022/07/25 12:25:40;;;;;;;2.08;0.77;;;23.30;99.90;;;;;;6255846;22;19910;-90
2022/07/25 12:28:10;;;;;;;4.03;0.90;;;23.30;99.90;;;;;;6256266;22;20428;-92
2022/07/25 12:30:37;;;;;;;1.60;0.80;;;23.30;99.90;;;;;;6254584;22;20043;-91
2022/07/25 12:56:21;;;;;;;3.33;0.80;;;23.40;99.90;;;;;;6305110;22;20453;-87
2022/07/25 12:58:49;;;;;;;;;;;23.40;99.90;;;;;;6286344;22;20019;-88
2022/07/25 13:01:14;;;;;;;1.98;0.57;;;23.40;99.90;;;;;;6285852;22;19912;-88
2022/07/25 13:03:40;;;;;;;;;;;23.30;99.90;;;;;;6311843;22;20022;-91
2022/07/25 13:06:38;;;;;;;2.10;0.73;;;23.30;99.90;;;;;;6311810;22;19910;-87
2022/07/25 13:09:10;;;;;;;1.45;0.60;;;23.30;99.90;;;;;;6286619;22;20057;-92
2022/07/25 13:11:36;;;;;;;1.20;0.55;;;23.30;99.90;;;;;;6285933;22;20015;-87
2022/07/25 13:14:17;;;;;;;2.15;0.73;;;23.30;99.90;;;;;;6312618;22;20022;-88
2022/07/25 13:16:43;;;;;;;2.95;0.82;;;23.40;99.90;;;;;;6284673;22;20019;-90
2022/07/25 13:19:10;;;;;;;2.83;0.80;;;23.50;99.90;;;;;;6312599;22;20085;-90
2022/07/25 13:21:36;;;;;;;3.45;0.70;;;23.60;99.90;;;;;;6284856;22;20025;-92
2022/07/25 13:24:02;;;;;;;1.63;0.50;;;23.60;99.90;;;;;;6286223;22;20466;-91
2022/07/25 13:26:38;;;;;;;;;;;23.60;99.90;;;;;;6286732;22;20011;-90
2022/07/25 13:34:23;;;;;;;1.48;0.57;;;23.40;99.90;;;;;;6306784;22;20351;-91
2022/07/25 13:36:57;;;;;;;;;;;23.30;99.90;;;;;;6253379;22;20023;-94
2022/07/25 13:39:23;;;;;;;2.17;0.60;;;23.20;99.90;;;;;;6279707;22;19914;-90
2022/07/25 13:41:52;;;;;;;2.60;1.30;;;23.20;99.90;;;;;;6254459;22;20310;-92
2022/07/25 13:44:18;;;;;;;1.88;0.68;;;23.20;99.90;;;;;;6255486;22;20019;-92
2022/07/25 13:46:48;;;;;;;4.15;0.80;;;23.10;99.90;;;;;;6254155;22;20014;-90
2022/07/25 13:49:14;;;;;;;1.75;0.75;;;23.20;99.90;;;;;;6255022;22;20019;-92
2022/07/25 14:30:31;;;;;;;2.58;0.70;;;23.40;99.40;;;;;;6321786;22;20019;-94
2022/07/25 14:32:58;;;;;;;3.08;0.77;;;23.50;99.10;;;;;;6267990;22;20318;-96
2022/07/25 14:35:24;;;;;;;1.58;0.57;;;23.50;99.20;;;;;;6268973;22;20015;-96
2022/07/25 14:37:50;;;;;;;2.38;0.95;;;23.50;99.10;;;;;;6265278;22;20019;-93
2022/07/25 14:40:20;;;;;;;3.45;0.73;;;23.50;98.80;;;;;;6292500;22;20067;-96
2022/07/25 14:42:54;;;;;;;3.53;0.80;;;23.50;98.70;;;;;;6293673;22;20015;-96
2022/07/25 14:45:22;;;;;;;3.15;0.80;;;23.70;98.40;;;;;;6245810;22;20011;-96
2022/07/25 14:47:48;;;;;;;2.65;0.70;;;23.80;98.20;;;;;;6293996;22;20015;-94
2022/07/25 14:50:14;;;;;;;;;;;23.90;97.90;;;;;;6262515;22;20011;-91
2022/07/25 14:52:43;;;;;;;2.45;0.70;;;23.90;97.50;;;;;;6268198;22;19914;-96
2022/07/25 14:55:09;;;;;;;1.77;0.80;;;23.80;97.30;;;;;;6264435;22;20148;-95
2022/07/25 14:57:37;;;;;;;;;;;23.70;97.50;;;;;;6262474;22;20023;-96
2022/07/25 15:00:05;;;;;;;3.00;0.85;;;23.70;96.50;;;;;;6262698;22;19915;-96
2022/07/25 15:02:31;;;;;;;1.48;0.68;;;23.80;97.10;;;;;;6264252;22;20011;-93
2022/07/25 15:04:57;;;;;;;;;;;23.80;97.00;;;;;;6264575;22;20019;-95
2022/07/25 15:07:23;;;;;;;2.55;0.80;;;23.90;96.80;;;;;;6263934;22;19965;-94
2022/07/25 15:09:48;;;;;;;;;;;23.90;96.60;;;;;;6259057;22;20019;-95
2022/07/25 15:12:14;;;;;;;1.95;0.70;;;23.90;96.50;;;;;;6257386;22;20373;-95
2022/07/25 15:14:42;;;;;;;2.90;0.80;;;23.70;96.50;;;;;;6256219;22;20022;-96
2022/07/25 15:17:07;;;;;;;2.38;0.88;;;23.60;96.60;;;;;;6256464;22;20071;-96
2022/07/25 15:19:33;;;;;;;;;;;23.50;96.80;;;;;;6257887;22;20011;-94
2022/07/25 15:25:56;;;;;;;2.45;0.80;;;23.40;96.70;;;;;;6283835;22;20098;-95
2022/07/25 16:19:19;;;;;;;1.98;0.85;;;22.80;96.80;;;;;;6319797;22;20023;-94
2022/07/25 16:21:45;;;;;;;3.55;0.88;;;22.70;96.80;;;;;;6289925;22;20019;-96
2022/07/25 16:24:10;;;;;;;3.53;0.73;;;22.70;96.80;;;;;;6289424;22;20321;-93
2022/07/25 16:26:36;;;;;;;;;;;22.70;96.80;;;;;;6290929;22;20015;-93
2022/07/25 16:29:03;;;;;;;2.00;0.75;;;22.70;96.70;;;;;;6290656;22;19914;-96
2022/07/25 17:00:30;;;;;;;2.00;0.80;;;22.20;97.00;;;;;;6343472;22;20071;-95
2022/07/25 17:03:21;;;;;;;2.75;0.82;;;22.10;97.10;;;;;;6288989;22;20019;-95
2022/07/25 17:06:10;;;;;;;1.73;0.77;;;22.10;97.20;;;;;;6281259;22;20094;-95
2022/07/25 17:08:39;;;;;;;3.10;0.75;;;22.10;97.30;;;;;;6287781;22;20019;-95
2022/07/25 18:16:36;;;;;;;2.85;0.63;;;21.40;98.80;;;;;;6310220;22;20023;-92
2022/07/25 18:19:15;;;;;;;;;;;;;;;;;;;;;
2022/07/25 18:55:21;;;;;;;4.10;0.70;;;21.20;99.70;;;;;;6306608;22;20081;-95
2022/07/25 18:58:03;;;;;;;5.30;0.88;;;21.20;99.60;;;;;;6255495;22;20015;-93
2022/07/25 19:00:31;;;;;;;3.65;0.88;;;21.10;99.60;;;;;;6290206;22;19999;-91
2022/07/25 19:03:06;;;;;;;3.72;0.50;;;21.10;99.70;;;;;;6285808;22;20038;-91
2022/07/25 19:05:40;;;;;;;3.58;0.68;;;21.10;99.80;;;;;;6282441;22;20019;-90
2022/07/25 19:08:12;;;;;;;1.77;0.65;;;21.10;99.90;;;;;;6257548;22;20466;-96
2022/07/25 19:10:58;;;;;;;1.40;0.40;;;21.10;99.80;;;;;;6283027;22;20094;-92
2022/07/25 19:13:24;;;;;;;1.73;0.52;;;21.00;99.90;;;;;;6257664;22;20015;-90
2022/07/25 19:15:49;;;;;;;3.47;0.80;;;21.00;99.90;;;;;;6257504;22;20544;-91
2022/07/25 19:18:15;;;;;;;3.85;0.52;;;21.00;99.90;;;;;;6257919;22;20015;-91
2022/07/25 19:20:44;;;;;;;2.38;0.65;;;21.00;99.90;;;;;;6257593;22;20019;-92
2022/07/25 19:23:16;;;;;;;2.42;0.80;;;20.90;99.90;;;;;;6258037;22;20017;-92
2022/07/25 19:25:52;;;;;;;2.65;0.63;;;20.90;99.90;;;;;;6258841;22;20051;-95
2022/07/25 19:28:25;;;;;;;4.05;0.75;;;20.90;99.90;;;;;;6258487;22;20035;-93
2022/07/25 19:30:51;;;;;;;3.50;0.75;;;20.90;99.90;;;;;;6258164;22;20025;-96
2022/07/25 19:33:17;;;;;;;6.50;0.63;;;20.90;99.90;;;;;;6257015;22;20039;-95
2022/07/25 19:35:44;;;;;;;2.97;0.70;;;20.90;99.90;;;;;;6258335;22;20094;-91
2022/07/25 19:38:10;;;;;;;2.45;0.60;;;20.90;99.90;;;;;;6257482;22;20011;-90
2022/07/25 19:40:35;;;;;;;4.50;0.65;;;20.80;99.90;;;;;;6257018;22;20169;-94
2022/07/25 19:43:01;;;;;;;3.72;0.77;;;20.90;99.90;;;;;;6265611;22;20016;-90
2022/07/25 19:45:35;;;;;;;3.13;1.02;;;20.90;99.90;;;;;;6284897;22;20022;-89
2022/07/25 19:48:01;;;;;;;3.22;0.40;;;20.80;99.90;;;;;;6278132;22;20011;-95
2022/07/25 19:50:27;;;;;;;4.78;1.10;;;20.80;99.90;;;;;;6257750;22;20046;-96
2022/07/25 19:52:53;;;;;;;1.75;0.40;;;20.80;99.90;;;;;;6258007;22;20016;-93
2022/07/25 19:55:22;;;;;;;3.25;0.68;;;20.80;99.90;;;;;;6282067;22;20096;-92
2022/07/25 19:57:47;;;;;;;2.55;0.50;;;20.80;99.90;;;;;;6257739;22;20046;-90
2022/07/25 20:00:13;;;;;;;3.60;0.43;;;20.80;99.90;;;;;;6256762;22;20011;-93
2022/07/25 20:02:40;;;;;;;2.60;0.68;;;20.70;99.90;;;;;;6284129;22;20184;-95
2022/07/25 20:05:07;;;;;;;3.75;0.50;;;20.80;99.90;;;;;;6256729;22;20023;-95
2022/07/25 20:07:32;;;;;;;2.08;0.52;;;20.70;99.90;;;;;;6257284;22;20015;-92
2022/07/25 20:09:58;;;;;;;3.78;0.68;;;20.70;99.90;;;;;;6256795;22;20073;-94
2022/07/25 20:12:24;;;;;;;3.58;0.50;;;20.70;99.90;;;;;;6256614;22;20011;-95
2022/07/25 20:14:58;;;;;;;1.73;0.50;;;20.60;99.90;;;;;;6257097;22;20019;-94
2022/07/25 20:17:27;;;;;;;2.60;0.50;;;20.60;99.90;;;;;;6257103;22;20440;-92
2022/07/25 20:19:52;;;;;;;3.08;0.60;;;20.60;99.90;;;;;;6258835;22;20019;-92
2022/07/25 20:22:18;;;;;;;3.40;0.95;;;20.60;99.90;;;;;;6283542;22;20110;-93
2022/07/25 20:24:44;;;;;;;2.15;0.60;;;20.60;99.90;;;;;;6257796;22;20016;-93
2022/07/25 20:27:10;;;;;;;0.95;0.43;;;20.60;99.90;;;;;;6261769;22;20094;-95
2022/07/25 20:29:35;;;;;;;2.60;0.95;;;20.50;99.90;;;;;;6279530;22;20019;-90
2022/07/25 20:32:09;;;;;;;4.32;0.70;;;20.50;99.90;;;;;;6257276;22;20038;-96
2022/07/25 20:34:34;;;;;;;2.53;0.80;;;20.50;99.90;;;;;;6256557;22;20021;-92
2022/07/25 20:37:00;;;;;;;2.72;0.52;;;20.50;99.90;;;;;;6257267;22;20015;-95
2022/07/25 20:39:26;;;;;;;2.42;0.73;;;20.50;99.90;;;;;;6257646;22;20011;-95
2022/07/25 20:41:52;;;;;;;2.03;0.52;;;20.50;99.90;;;;;;6257908;22;20098;-92
2022/07/25 20:44:17;;;;;;;4.50;0.80;;;20.40;99.90;;;;;;6256818;22;20019;-94
2022/07/25 20:46:43;;;;;;;5.47;0.80;;;20.50;99.90;;;;;;6256565;22;20086;-90
2022/07/25 20:49:09;;;;;;;2.38;0.68;;;20.40;99.90;;;;;;6257656;22;20080;-93
2022/07/25 20:51:41;;;;;;;3.78;0.50;;;20.40;99.90;;;;;;6256892;22;20015;-96
2022/07/25 20:54:08;;;;;;;3.38;0.60;;;20.40;99.90;;;;;;6256976;22;20026;-96
2022/07/25 20:56:33;;;;;;;5.03;0.90;;;20.40;99.90;;;;;;6258153;22;20015;-92
2022/07/25 20:58:59;;;;;;;2.88;0.60;;;20.30;99.90;;;;;;6256354;22;20214;-96
2022/07/25 21:01:25;;;;;;;3.47;0.82;;;20.30;99.90;;;;;;6256719;22;20015;-95
2022/07/25 21:03:51;;;;;;;4.55;1.25;;;20.20;99.90;;;;;;6256552;22;20011;-92
2022/07/25 21:06:16;;;;;;;2.65;0.55;;;20.20;99.90;;;;;;6256816;22;20019;-94
2022/07/25 21:08:42;;;;;;;2.17;0.70;;;20.20;99.90;;;;;;6257163;22;20016;-95
2022/07/25 21:11:15;;;;;;;2.13;0.70;;;20.20;99.90;;;;;;6256872;22;20090;-94
2022/07/25 21:13:43;;;;;;;3.65;0.70;;;20.20;99.90;;;;;;6256602;22;20022;-94
2022/07/25 21:16:38;;;;;;;3.65;0.85;;;20.10;99.90;;;;;;6258103;22;20024;-96
2022/07/25 21:19:04;;;;;;;2.83;0.80;;;20.10;99.90;;;;;;6257240;22;20026;-92
2022/07/25 21:21:35;;;;;;;2.83;0.68;;;20.10;99.90;;;;;;6256567;22;20011;-94
2022/07/25 21:24:37;;;;;;;;;;;;;;;;;;;;;
2022/07/25 21:27:03;;;;;;;2.72;0.60;;;20.00;99.90;;;;;;6282552;22;20011;-96
2022/07/25 21:29:49;;;;;;;7.05;0.82;;;20.00;99.90;;;;;;6310429;22;20025;-90
2022/07/25 21:32:18;;;;;;;3.17;0.80;;;20.00;99.90;;;;;;6256518;22;20062;-93
2022/07/25 21:34:44;;;;;;;2.80;0.50;;;20.00;99.90;;;;;;6255465;22;20019;-93
2022/07/25 21:37:11;;;;;;;2.97;0.65;;;19.90;99.90;;;;;;6256522;22;20044;-96
2022/07/25 21:39:37;;;;;;;5.60;1.08;;;19.90;99.90;;;;;;6256186;22;20021;-89
2022/07/25 21:42:08;;;;;;;4.72;0.80;;;19.90;99.90;;;;;;6256584;22;20053;-93
2022/07/25 21:44:38;;;;;;;4.22;0.70;;;19.90;99.90;;;;;;6256169;22;20117;-95
2022/07/25 21:47:03;;;;;;;3.08;0.68;;;19.90;99.90;;;;;;6256896;22;20015;-93
2022/07/25 21:52:13;;;;;;;1.27;0.50;;;19.90;99.90;;;;;;6282183;22;20053;-89
2022/07/25 21:54:40;;;;;;;3.08;1.15;;;19.80;99.90;;;;;;6256332;22;20015;-95
2022/07/25 21:57:06;;;;;;;2.67;0.57;;;19.90;99.90;;;;;;6254945;22;20026;-95
2022/07/25 21:59:39;;;;;;;3.58;0.57;;;19.90;99.90;;;;;;6257114;22;20011;-95
2022/07/25 22:02:04;;;;;;;3.28;0.80;;;19.90;99.90;;;;;;6256768;22;20011;-91
2022/07/25 22:04:30;;;;;;;4.28;1.45;;;19.90;99.90;;;;;;6255768;22;20080;-94
2022/07/25 22:06:56;;;;;;;3.83;0.77;;;19.90;99.90;;;;;;6280704;22;20016;-91
2022/07/25 22:09:22;;;;;;;2.42;0.80;;;19.90;99.90;;;;;;6255560;22;20007;-94
2022/07/25 22:11:55;;;;;;;3.17;0.50;;;19.90;99.90;;;;;;6256117;22;20449;-93
2022/07/25 22:14:21;;;;;;;1.95;0.50;;;19.90;99.90;;;;;;6255626;22;20058;-91
2022/07/25 22:16:47;;;;;;;3.22;0.68;;;20.00;99.90;;;;;;6255546;22;20019;-91
2022/07/25 22:19:13;;;;;;;2.80;0.90;;;20.00;99.90;;;;;;6256257;22;20042;-94
2022/07/25 22:21:42;;;;;;;3.50;0.75;;;20.00;99.90;;;;;;6255990;22;20098;-94
2022/07/25 22:24:08;;;;;;;3.30;0.68;;;20.00;99.90;;;;;;6280992;22;20015;-95
2022/07/25 22:26:34;;;;;;;;;;;20.00;99.90;;;;;;6256559;22;20015;-95
2022/07/25 22:29:03;;;;;;;4.05;1.48;;;20.00;99.90;;;;;;6255996;22;20368;-91
2022/07/25 22:31:28;;;;;;;3.35;0.52;;;20.00;99.90;;;;;;6255666;22;20012;-92
2022/07/25 22:33:54;;;;;;;5.45;1.05;;;20.00;99.90;;;;;;6255690;22;20015;-94
2022/07/25 22:36:25;;;;;;;5.20;0.80;;;20.00;99.90;;;;;;6255924;22;20047;-95
2022/07/25 22:38:54;;;;;;;4.65;1.33;;;19.90;99.90;;;;;;6255684;22;20011;-91
2022/07/25 22:41:23;;;;;;;2.10;0.68;;;20.00;99.90;;;;;;6255958;22;20152;-95
2022/07/25 22:43:48;;;;;;;3.20;1.30;;;19.90;99.90;;;;;;6255649;22;20046;-94
2022/07/25 22:46:17;;;;;;;2.97;0.60;;;19.90;99.90;;;;;;6257031;22;20019;-92
2022/07/25 22:48:45;;;;;;;4.25;0.75;;;19.90;99.90;;;;;;6255741;22;20097;-91
2022/07/25 22:51:11;;;;;;;4.45;0.88;;;19.90;99.90;;;;;;6255417;22;20016;-92
2022/07/25 22:53:36;;;;;;;3.80;0.80;;;19.80;99.90;;;;;;6256550;22;20037;-92
2022/07/25 22:56:02;;;;;;;5.22;0.95;;;19.80;99.90;;;;;;6255373;22;20069;-90
2022/07/25 22:58:28;;;;;;;2.85;0.88;;;19.80;99.90;;;;;;6255963;22;20011;-91
2022/07/25 23:24:12;;;;;;;2.80;0.57;;;19.60;99.90;;;;;;6306977;22;20030;-90
2022/07/25 23:26:38;;;;;;;4.03;0.75;;;19.60;99.90;;;;;;6285769;22;20018;-94
2022/07/25 23:29:04;;;;;;;3.22;0.88;;;19.50;99.90;;;;;;6286035;22;20007;-91
2022/07/25 23:31:51;;;;;;;2.58;0.70;;;19.60;99.90;;;;;;6285771;22;20022;-92
2022/07/25 23:34:16;;;;;;;;;;;19.50;99.90;;;;;;6286402;22;20404;-91
